createdAt,value
2018-06-13T00:00:26.417Z,81.57
2018-06-13T00:03:30.013Z,82.02
2018-06-13T00:06:33.701Z,82.02
2018-06-13T00:09:37.228Z,81.83
2018-06-13T00:12:40.856Z,82.38
2018-06-13T00:15:44.453Z,82.41
2018-06-13T00:18:48.092Z,82.66
2018-06-13T00:21:51.647Z,83.08
2018-06-13T00:24:55.205Z,82.99
2018-06-13T00:27:58.799Z,82.76
2018-06-13T00:31:02.344Z,82.97
2018-06-13T00:34:06.013Z,83.60
2018-06-13T00:37:09.576Z,83.76
2018-06-13T00:40:13.128Z,83.92
2018-06-13T00:43:16.789Z,83.68
2018-06-13T00:46:20.568Z,83.90
2018-06-13T00:49:24.172Z,84.13
2018-06-13T00:52:27.826Z,84.31
2018-06-13T00:55:31.441Z,84.44
2018-06-13T00:58:35.044Z,84.21
2018-06-13T01:01:39.169Z,84.42
2018-06-13T01:04:42.820Z,84.76
2018-06-13T01:07:46.375Z,84.35
2018-06-13T01:10:49.972Z,84.47
2018-06-13T01:13:53.502Z,84.78
2018-06-13T01:16:57.128Z,84.98
2018-06-13T01:20:00.698Z,85.14
2018-06-13T01:23:04.702Z,84.76
2018-06-13T01:26:08.276Z,85.11
2018-06-13T01:29:11.923Z,86.08
2018-06-13T01:32:15.420Z,85.88
2018-06-13T01:35:18.978Z,85.70
2018-06-13T01:38:22.565Z,86.01
2018-06-13T01:41:26.224Z,86.25
2018-06-13T01:44:29.788Z,86.36
2018-06-13T01:47:33.392Z,86.94
2018-06-13T01:50:36.992Z,86.80
2018-06-13T01:53:40.707Z,86.95
2018-06-13T01:56:44.263Z,87.40
2018-06-13T01:59:47.827Z,86.52
2018-06-13T02:02:51.386Z,86.89
2018-06-13T02:05:54.942Z,87.33
2018-06-13T02:08:58.489Z,87.88
2018-06-13T02:12:02.049Z,88.12
2018-06-13T02:15:05.648Z,87.85
2018-06-13T02:18:09.298Z,87.07
2018-06-13T02:21:12.863Z,86.45
2018-06-13T02:24:16.608Z,85.61
2018-06-13T02:27:20.198Z,84.64
2018-06-13T02:30:23.764Z,84.08
2018-06-13T02:33:27.284Z,84.08
2018-06-13T02:36:30.887Z,83.37
2018-06-13T02:39:34.424Z,83.60
2018-06-13T02:42:38.096Z,83.28
2018-06-13T02:45:41.659Z,83.50
2018-06-13T02:48:45.240Z,83.67
2018-06-13T02:51:48.780Z,83.65
2018-06-13T02:54:52.364Z,83.40
2018-06-13T02:57:55.963Z,83.17
2018-06-13T03:00:59.601Z,83.33
2018-06-13T03:04:03.193Z,83.72
2018-06-13T03:07:07.003Z,83.84
2018-06-13T03:10:10.604Z,84.14
2018-06-13T03:13:14.205Z,84.71
2018-06-13T03:16:17.843Z,85.15
2018-06-13T03:19:21.533Z,85.38
2018-06-13T03:22:25.084Z,85.60
2018-06-13T03:25:28.758Z,85.45
2018-06-13T03:28:32.418Z,85.46
2018-06-13T03:31:36.006Z,86.13
2018-06-13T03:34:39.555Z,86.44
2018-06-13T03:37:43.094Z,86.21
2018-06-13T03:40:46.715Z,86.14
2018-06-13T03:43:50.340Z,86.04
2018-06-13T03:46:53.896Z,86.40
2018-06-13T03:49:57.455Z,86.87
2018-06-13T03:53:01.150Z,86.75
2018-06-13T03:56:04.886Z,86.85
2018-06-13T03:59:08.525Z,86.39
2018-06-13T04:02:12.310Z,86.23
2018-06-13T04:05:15.896Z,85.75
2018-06-13T04:08:19.419Z,85.81
2018-06-13T04:11:22.945Z,85.60
2018-06-13T04:14:26.506Z,85.99
2018-06-13T04:17:30.035Z,85.80
2018-06-13T04:20:33.651Z,85.42
2018-06-13T04:23:37.363Z,85.66
2018-06-13T04:26:40.966Z,85.72
2018-06-13T04:29:44.525Z,86.30
2018-06-13T04:32:48.216Z,86.40
2018-06-13T04:35:51.817Z,86.55
2018-06-13T04:38:55.629Z,86.30
2018-06-13T04:41:59.256Z,86.29
2018-06-13T04:45:02.862Z,86.05
2018-06-13T04:48:06.475Z,85.66
2018-06-13T04:51:10.132Z,85.87
2018-06-13T04:54:13.725Z,86.19
2018-06-13T04:57:17.901Z,85.63
2018-06-13T05:00:21.720Z,86.06
2018-06-13T05:03:25.305Z,85.74
2018-06-13T05:06:28.916Z,85.46
2018-06-13T05:09:32.510Z,85.27
2018-06-13T05:12:36.097Z,83.99
2018-06-13T05:15:39.647Z,83.76
2018-06-13T05:18:44.345Z,83.16
2018-06-13T05:21:47.981Z,82.81
2018-06-13T05:24:51.836Z,82.48
2018-06-13T05:27:55.352Z,82.67
2018-06-13T05:30:58.974Z,82.58
2018-06-13T05:34:02.610Z,81.85
2018-06-13T05:37:06.501Z,81.66
2018-06-13T05:40:10.155Z,81.35
2018-06-13T05:43:13.767Z,81.06
2018-06-13T05:46:17.331Z,80.94
2018-06-13T05:49:22.097Z,81.64
2018-06-13T05:52:25.677Z,81.74
2018-06-13T05:55:29.361Z,81.64
2018-06-13T05:58:33.035Z,81.19
2018-06-13T06:01:36.611Z,81.67
2018-06-13T06:04:40.225Z,80.75
2018-06-13T06:07:43.771Z,80.00
2018-06-13T06:10:47.436Z,80.50
2018-06-13T06:13:51.268Z,80.59
2018-06-13T06:16:54.833Z,80.74
2018-06-13T06:19:58.366Z,80.61
2018-06-13T06:23:02.132Z,80.06
2018-06-13T06:26:05.828Z,79.60
2018-06-13T06:29:09.521Z,79.83
2018-06-13T06:32:13.070Z,79.82
2018-06-13T06:35:16.666Z,80.71
2018-06-13T06:38:20.268Z,80.59
2018-06-13T06:41:23.881Z,79.87
2018-06-13T06:44:27.512Z,79.96
2018-06-13T06:47:31.146Z,79.04
2018-06-13T06:50:34.708Z,79.24
2018-06-13T06:53:38.298Z,78.58
2018-06-13T06:56:41.911Z,78.86
2018-06-13T06:59:45.490Z,79.13
2018-06-13T07:02:49.156Z,79.69
2018-06-13T07:05:52.744Z,79.63
2018-06-13T07:08:56.523Z,79.57
2018-06-13T07:12:00.103Z,79.80
2018-06-13T07:15:03.788Z,80.29
2018-06-13T07:18:07.463Z,78.84
2018-06-13T07:21:11.183Z,79.16
2018-06-13T07:24:14.841Z,77.67
2018-06-13T07:27:18.424Z,78.06
2018-06-13T07:30:22.053Z,78.38
2018-06-13T07:33:25.753Z,78.02
2018-06-13T07:36:29.314Z,77.90
2018-06-13T07:39:32.968Z,77.48
2018-06-13T07:42:36.507Z,76.09
2018-06-13T07:45:40.139Z,75.03
2018-06-13T07:48:43.708Z,74.83
2018-06-13T07:51:47.359Z,75.48
2018-06-13T07:54:50.904Z,75.44
2018-06-13T07:57:54.484Z,76.36
2018-06-13T08:00:58.067Z,76.67
2018-06-13T08:04:01.623Z,76.03
2018-06-13T08:07:05.256Z,73.85
2018-06-13T08:10:08.874Z,74.13
2018-06-13T08:13:12.402Z,74.28
2018-06-13T08:16:15.948Z,74.12
2018-06-13T08:19:19.553Z,73.23
2018-06-13T08:22:23.137Z,75.20
2018-06-13T08:25:26.828Z,74.50
2018-06-13T08:28:30.410Z,74.54
2018-06-13T08:31:34.039Z,73.65
2018-06-13T08:34:37.603Z,73.52
2018-06-13T08:37:41.236Z,72.07
2018-06-13T08:40:44.812Z,72.98
2018-06-13T08:43:48.437Z,73.33
2018-06-13T08:46:52.007Z,74.13
2018-06-13T08:49:55.545Z,75.23
2018-06-13T08:52:59.139Z,75.82
2018-06-13T08:56:02.827Z,75.58
2018-06-13T08:59:06.408Z,75.78
2018-06-13T09:02:09.967Z,74.00
2018-06-13T09:05:13.644Z,72.76
2018-06-13T09:08:17.278Z,72.74
2018-06-13T09:11:20.827Z,71.82
2018-06-13T09:14:24.488Z,71.27
2018-06-13T09:17:28.043Z,72.80
2018-06-13T09:20:31.762Z,70.43
2018-06-13T09:23:35.555Z,68.86
2018-06-13T09:26:39.082Z,68.55
2018-06-13T09:29:42.737Z,66.99
2018-06-13T09:32:46.355Z,68.09
2018-06-13T09:35:49.934Z,67.92
2018-06-13T09:38:53.488Z,68.41
2018-06-13T09:42:01.163Z,65.87
2018-06-13T09:45:04.820Z,63.02
2018-06-13T09:48:08.390Z,65.01
2018-06-13T09:51:12.036Z,65.63
2018-06-13T09:54:15.603Z,65.23
2018-06-13T09:57:19.203Z,67.06
2018-06-13T10:00:28.079Z,66.08
2018-06-13T10:03:31.714Z,64.84
2018-06-13T10:06:35.854Z,65.33
2018-06-13T10:09:39.411Z,64.55
2018-06-13T10:12:42.989Z,62.42
2018-06-13T10:15:46.668Z,61.06
2018-06-13T10:18:50.265Z,61.22
2018-06-13T10:21:54.008Z,60.90
2018-06-13T10:24:57.663Z,60.06
2018-06-13T10:28:01.308Z,60.75
2018-06-13T10:31:04.870Z,60.46
2018-06-13T10:34:08.453Z,60.69
2018-06-13T10:37:12.129Z,59.87
2018-06-13T10:40:15.678Z,60.43
2018-06-13T10:43:19.265Z,62.62
2018-06-13T10:46:22.818Z,62.87
2018-06-13T10:49:26.474Z,62.02
2018-06-13T10:52:30.039Z,62.57
2018-06-13T10:55:33.706Z,63.45
2018-06-13T10:58:37.233Z,64.54
2018-06-13T11:01:40.909Z,63.47
2018-06-13T11:04:44.446Z,63.55
2018-06-13T11:07:47.995Z,65.57
2018-06-13T11:10:51.525Z,64.45
2018-06-13T11:13:55.157Z,66.15
2018-06-13T11:16:58.764Z,67.14
2018-06-13T11:20:02.489Z,66.77
2018-06-13T11:23:06.340Z,68.81
2018-06-13T11:26:10.098Z,68.47
2018-06-13T11:29:13.644Z,67.89
2018-06-13T11:32:17.277Z,70.20
2018-06-13T11:35:20.939Z,70.70
2018-06-13T11:38:24.580Z,71.88
2018-06-13T11:41:28.182Z,71.45
2018-06-13T11:44:31.838Z,71.15
2018-06-13T11:47:35.474Z,69.92
2018-06-13T11:50:39.040Z,69.89
2018-06-13T11:53:42.700Z,69.83
2018-06-13T11:56:46.377Z,70.37
2018-06-13T11:59:50.046Z,68.03
2018-06-13T12:02:53.685Z,68.15
2018-06-13T12:05:57.390Z,67.24
2018-06-13T12:09:00.961Z,65.36
2018-06-13T12:12:04.633Z,64.51
2018-06-13T12:15:08.310Z,65.29
2018-06-13T12:18:12.450Z,62.97
2018-06-13T12:21:16.045Z,62.86
2018-06-13T12:24:19.705Z,62.90
2018-06-13T12:27:23.213Z,62.42
2018-06-13T12:30:26.789Z,61.72
2018-06-13T12:33:32.791Z,61.65
2018-06-13T12:36:36.509Z,60.67
2018-06-13T12:39:40.178Z,61.29
2018-06-13T12:42:43.857Z,60.80
2018-06-13T12:45:47.403Z,60.59
2018-06-13T12:48:50.995Z,60.08
2018-06-13T12:51:54.566Z,58.59
2018-06-13T12:54:58.112Z,59.78
2018-06-13T12:58:01.712Z,60.20
2018-06-13T13:01:05.365Z,62.58
2018-06-13T13:04:08.997Z,62.33
2018-06-13T13:07:12.702Z,61.81
2018-06-13T13:10:18.885Z,61.02
2018-06-13T13:13:22.546Z,59.43
2018-06-13T13:16:26.112Z,58.95
2018-06-13T13:19:29.658Z,59.04
2018-06-13T13:22:33.316Z,58.69
2018-06-13T13:25:37.031Z,58.91
2018-06-13T13:28:40.680Z,59.04
2018-06-13T13:31:44.290Z,56.62
2018-06-13T13:34:47.848Z,59.01
2018-06-13T13:37:51.466Z,59.51
2018-06-13T13:40:57.743Z,58.72
2018-06-13T13:44:01.345Z,58.33
2018-06-13T13:47:04.957Z,58.14
2018-06-13T13:50:08.547Z,56.50
2018-06-13T13:53:12.234Z,56.92
2018-06-13T13:56:17.857Z,57.43
2018-06-13T13:59:21.472Z,58.46
2018-06-13T14:02:25.236Z,59.03
2018-06-13T14:05:28.842Z,60.04
2018-06-13T14:08:32.615Z,58.06
2018-06-13T14:11:36.387Z,59.07
2018-06-13T14:14:41.208Z,59.78
2018-06-13T14:17:44.893Z,60.36
2018-06-13T14:20:48.511Z,61.70
2018-06-13T14:23:52.303Z,61.72
2018-06-13T14:26:55.974Z,61.93
2018-06-13T14:29:59.688Z,61.30
2018-06-13T14:33:03.371Z,58.73
2018-06-13T14:36:06.963Z,57.96
2018-06-13T14:39:11.491Z,56.82
2018-06-13T14:42:15.136Z,58.62
2018-06-13T14:45:19.463Z,57.17
2018-06-13T14:48:23.240Z,57.11
2018-06-13T14:51:26.904Z,58.55
2018-06-13T14:54:30.638Z,57.44
2018-06-13T14:57:34.321Z,55.53
2018-06-13T15:00:37.963Z,54.23
2018-06-13T15:03:42.412Z,56.61
2018-06-13T15:06:46.009Z,55.44
2018-06-13T15:09:49.672Z,55.69
2018-06-13T15:12:53.484Z,55.45
2018-06-13T15:15:57.113Z,56.46
2018-06-13T15:19:00.756Z,56.40
2018-06-13T15:22:04.467Z,56.77
2018-06-13T15:25:08.224Z,56.01
2018-06-13T15:28:11.842Z,56.03
2018-06-13T15:31:15.511Z,57.65
2018-06-13T15:34:19.244Z,56.58
2018-06-13T15:37:22.891Z,56.47
2018-06-13T15:40:26.501Z,57.15
2018-06-13T15:43:32.477Z,56.43
2018-06-13T15:46:36.274Z,56.89
2018-06-13T15:49:52.019Z,56.53
2018-06-13T15:59:47.418Z,54.18
2018-06-13T16:02:51.117Z,53.94
2018-06-13T16:05:54.913Z,54.99
2018-06-13T16:08:58.683Z,54.43
2018-06-13T16:12:02.412Z,55.25
2018-06-13T16:15:06.264Z,56.09
2018-06-13T16:18:10.028Z,57.60
2018-06-13T16:21:13.682Z,55.44
2018-06-13T16:24:17.399Z,54.44
2018-06-13T16:27:21.052Z,53.86
2018-06-13T16:30:24.813Z,54.67
2018-06-13T16:33:28.481Z,54.26
2018-06-13T16:36:32.148Z,54.67
2018-06-13T16:39:35.872Z,54.60
2018-06-13T16:42:39.534Z,55.70
2018-06-13T16:45:43.174Z,55.67
2018-06-13T16:48:46.867Z,56.09
2018-06-13T16:51:56.349Z,56.36
2018-06-13T16:55:24.850Z,54.21
2018-06-13T16:58:28.528Z,51.39
2018-06-13T17:01:32.270Z,51.43
2018-06-13T17:04:37.530Z,51.82
2018-06-13T17:07:41.279Z,49.16
2018-06-13T17:10:44.828Z,47.39
2018-06-13T17:13:48.534Z,46.56
2018-06-13T17:16:52.248Z,47.47
2018-06-13T17:19:55.899Z,48.62
2018-06-13T17:22:59.521Z,49.16
2018-06-13T17:26:03.349Z,51.94
2018-06-13T17:29:06.999Z,54.76
2018-06-13T17:32:10.626Z,56.36
2018-06-13T17:35:14.334Z,56.98
2018-06-13T17:38:18.359Z,56.66
2018-06-13T17:41:21.978Z,57.23
2018-06-13T17:44:25.607Z,55.44
2018-06-13T17:47:29.245Z,55.12
2018-06-13T17:50:32.943Z,56.06
2018-06-13T17:53:36.670Z,54.78
2018-06-13T17:56:40.275Z,52.35
2018-06-13T17:59:43.936Z,46.51
2018-06-13T18:02:47.605Z,44.05
2018-06-13T18:05:51.410Z,44.32
2018-06-13T18:08:55.070Z,49.39
2018-06-13T18:11:58.885Z,52.70
2018-06-13T18:15:02.516Z,53.94
2018-06-13T18:18:06.449Z,55.87
2018-06-13T18:21:10.145Z,57.18
2018-06-13T18:24:13.894Z,56.98
2018-06-13T18:27:17.574Z,54.96
2018-06-13T18:30:21.313Z,55.57
2018-06-13T18:33:25.049Z,55.89
2018-06-13T18:36:28.644Z,57.37
2018-06-13T18:39:32.259Z,58.04
2018-06-13T18:42:35.996Z,58.24
2018-06-13T18:45:39.770Z,59.04
2018-06-13T18:48:43.526Z,59.48
2018-06-13T18:51:47.288Z,59.55
2018-06-13T18:54:50.939Z,58.61
2018-06-13T18:57:54.718Z,59.30
2018-06-13T19:00:58.769Z,58.66
2018-06-13T19:04:02.484Z,59.79
2018-06-13T19:07:06.147Z,60.04
2018-06-13T19:10:09.885Z,60.42
2018-06-13T19:13:13.666Z,60.79
2018-06-13T19:16:17.331Z,60.68
2018-06-13T19:19:21.321Z,60.59
2018-06-13T19:22:25.125Z,60.99
2018-06-13T19:25:28.903Z,61.94
2018-06-13T19:28:32.831Z,61.58
2018-06-13T19:31:36.499Z,61.46
2018-06-13T19:34:40.308Z,62.36
2018-06-13T19:37:43.978Z,62.34
2018-06-13T19:40:47.633Z,62.30
2018-06-13T19:43:51.520Z,62.58
2018-06-13T19:46:59.500Z,63.01
2018-06-13T19:50:03.263Z,63.23
2018-06-13T19:53:12.050Z,63.61
2018-06-13T19:56:17.939Z,64.03
2018-06-13T19:59:21.749Z,64.33
2018-06-13T20:02:29.565Z,64.29
2018-06-13T20:05:39.599Z,65.66
2018-06-13T20:08:43.171Z,65.41
2018-06-13T20:11:47.853Z,65.63
2018-06-13T20:14:56.950Z,65.23
2018-06-13T20:18:06.229Z,65.51
2018-06-13T20:21:10.824Z,65.44
2018-06-13T20:24:14.710Z,65.45
2018-06-13T20:27:23.539Z,66.15
2018-06-13T20:30:32.501Z,66.77
2018-06-13T20:33:36.240Z,66.61
2018-06-13T20:36:39.900Z,66.99
2018-06-13T20:39:43.669Z,67.64
2018-06-13T20:42:50.095Z,67.58
2018-06-13T20:45:53.864Z,67.56
2018-06-13T20:48:57.458Z,67.51
2018-06-13T20:52:01.136Z,67.90
2018-06-13T20:55:04.815Z,68.47
2018-06-13T20:58:08.490Z,68.70
2018-06-13T21:01:12.191Z,68.97
2018-06-13T21:04:15.816Z,69.13
2018-06-13T21:07:20.387Z,69.02
2018-06-13T21:10:24.020Z,69.18
2018-06-13T21:13:27.623Z,70.09
2018-06-13T21:16:32.120Z,70.67
2018-06-13T21:19:35.716Z,71.00
2018-06-13T21:22:39.451Z,71.18
2018-06-13T21:25:43.240Z,71.01
2018-06-13T21:28:46.856Z,71.21
2018-06-13T21:31:50.476Z,72.24
2018-06-13T21:34:54.168Z,72.40
2018-06-13T21:37:57.814Z,72.54
2018-06-13T21:41:01.343Z,72.93
2018-06-13T21:44:04.911Z,73.31
2018-06-13T21:47:08.541Z,74.01
2018-06-13T21:50:12.160Z,74.40
2018-06-13T21:53:15.661Z,74.79
2018-06-13T21:56:19.292Z,74.94
2018-06-13T21:59:23.041Z,75.56
2018-06-13T22:02:26.696Z,76.00
2018-06-13T22:05:30.409Z,76.69
2018-06-13T22:08:33.985Z,76.87
2018-06-13T22:11:43.827Z,77.09
2018-06-13T22:14:47.376Z,77.50
2018-06-13T22:17:51.168Z,77.47
2018-06-13T22:20:54.727Z,78.01
2018-06-13T22:23:58.441Z,78.13
2018-06-13T22:27:02.073Z,78.38
2018-06-13T22:30:05.692Z,78.71
2018-06-13T22:33:09.252Z,78.81
2018-06-13T22:36:12.765Z,79.12
2018-06-13T22:39:16.440Z,78.99
2018-06-13T22:42:20.120Z,79.46
2018-06-13T22:45:23.650Z,79.67
2018-06-13T22:48:27.310Z,79.70
2018-06-13T22:51:31.172Z,79.64
2018-06-13T22:54:34.692Z,80.20
2018-06-13T22:57:38.293Z,80.40
2018-06-13T23:01:06.502Z,80.87
2018-06-13T23:04:10.187Z,81.13
2018-06-13T23:07:13.707Z,81.31
2018-06-13T23:10:17.406Z,81.36
2018-06-13T23:13:20.987Z,81.63
2018-06-13T23:16:24.546Z,82.05
2018-06-13T23:19:28.142Z,82.41
2018-06-13T23:22:31.707Z,82.66
2018-06-13T23:25:35.392Z,82.59
2018-06-13T23:28:39.066Z,82.89
2018-06-13T23:31:42.631Z,83.10
2018-06-13T23:34:46.160Z,83.15
2018-06-13T23:37:49.784Z,83.07
2018-06-13T23:40:53.303Z,83.09
2018-06-13T23:43:56.942Z,83.32
2018-06-13T23:47:00.447Z,83.42
2018-06-13T23:50:04.227Z,83.53
2018-06-13T23:53:07.922Z,83.84
2018-06-13T23:56:11.402Z,84.14
2018-06-13T23:59:14.984Z,84.15
